Time;durP1;ratioP1;P1;durP2;ratioP2;P2;SDS_P1;SDS_P2;PMS_P1;PMS_P2;Temp;Humidity;BMP_temperature;BMP_pressure;BME280_temperature;BME280_humidity;BME280_pressure;Samples;Min_cycle;Max_cycle;Signal;HPM_P1;HPM_P2
2021/04/04 00:01:42;;;;;;;22.43;9.23;;;;;;;17.87;61.28;100191.47;5060959;28;20063;-70
2021/04/04 00:04:08;;;;;;;29.43;11.10;;;;;;;17.82;61.05;100178.38;5059621;28;20138;-72
2021/04/04 00:06:35;;;;;;;19.43;9.83;;;;;;;17.83;60.70;100179.19;5063925;28;20101;-72
2021/04/04 00:09:02;;;;;;;19.83;10.60;;;;;;;17.82;60.97;100177.56;5055221;28;20482;-73
2021/04/04 00:11:28;;;;;;;20.80;9.47;;;;;;;17.98;60.85;100184.28;5055548;28;20456;-72
2021/04/04 00:13:55;;;;;;;26.97;11.10;;;;;;;17.96;60.62;100166.84;5058714;28;20048;-67
2021/04/04 00:16:21;;;;;;;33.40;11.37;;;;;;;17.99;60.40;100178.31;5061401;28;20049;-71
2021/04/04 00:18:47;;;;;;;18.97;9.87;;;;;;;17.90;60.76;100157.72;5064028;28;20052;-71
2021/04/04 00:21:14;;;;;;;20.23;10.37;;;;;;;17.76;60.77;100134.53;5057737;28;20141;-70
2021/04/04 00:23:40;;;;;;;27.60;11.30;;;;;;;18.06;60.54;100177.78;5061968;28;20045;-68
2021/04/04 00:26:07;;;;;;;17.97;10.43;;;;;;;17.98;60.36;100171.00;5057916;28;20451;-72
2021/04/04 00:28:33;;;;;;;29.37;11.00;;;;;;;18.04;60.71;100180.09;5061911;28;20064;-72
2021/04/04 00:31:00;;;;;;;25.23;11.00;;;;;;;17.97;60.60;100166.50;5058154;28;20425;-71
2021/04/04 00:33:27;;;;;;;25.23;11.37;;;;;;;17.96;60.42;100169.69;5062994;28;20500;-70
2021/04/04 00:35:53;;;;;;;23.73;12.03;;;;;;;17.89;60.56;100158.09;5059530;28;20477;-74
2021/04/04 00:38:20;;;;;;;21.97;10.90;;;;;;;17.91;60.54;100167.03;5055611;28;20478;-81
2021/04/04 00:40:46;;;;;;;21.33;10.53;;;;;;;17.91;60.40;100162.19;5065600;28;20051;-80
2021/04/04 00:43:12;;;;;;;31.27;11.13;;;;;;;17.88;60.86;100170.53;5054811;28;20045;-74
2021/04/04 00:45:39;;;;;;;33.17;12.17;;;;;;;17.88;60.73;100164.88;5063328;28;20067;-72
2021/04/04 00:48:07;;;;;;;28.47;12.60;;;;;;;17.85;61.04;100165.59;5056641;28;20040;-73
2021/04/04 00:50:38;;;;;;;24.60;12.10;;;;;;;17.73;60.82;100141.66;5056232;28;20045;-71
2021/04/04 00:53:06;;;;;;;24.63;11.40;;;;;;;17.84;61.23;100158.25;5059138;28;20076;-71
2021/04/04 00:55:34;;;;;;;23.27;11.37;;;;;;;17.77;60.88;100156.78;5047957;28;20091;-71
2021/04/04 00:58:01;;;;;;;32.23;12.10;;;;;;;17.80;60.82;100158.09;5065531;28;20044;-72
2021/04/04 01:00:29;;;;;;;26.87;11.90;;;;;;;17.73;61.21;100155.78;5062070;28;20048;-81
2021/04/04 01:02:57;;;;;;;27.80;11.60;;;;;;;17.66;61.34;100163.13;5055278;28;20179;-71
2021/04/04 01:05:36;;;;;;;24.07;10.87;;;;;;;17.56;61.16;100161.50;5061309;28;20178;-74
2021/04/04 01:08:05;;;;;;;26.60;11.90;;;;;;;17.62;61.18;100162.97;5057757;28;20091;-74
2021/04/04 01:10:35;;;;;;;22.83;12.23;;;;;;;17.62;61.17;100159.31;5060175;28;20041;-72
2021/04/04 01:13:13;;;;;;;23.27;11.60;;;;;;;17.59;61.19;100158.00;5059551;28;20048;-77
2021/04/04 01:15:44;;;;;;;28.83;12.43;;;;;;;17.45;61.45;100140.44;5060968;28;20056;-75
2021/04/04 01:18:22;;;;;;;25.00;11.93;;;;;;;17.55;61.06;100162.66;5060210;28;20489;-79
2021/04/04 01:21:19;;;;;;;37.37;13.57;;;;;;;17.43;60.85;100139.94;5056709;28;20094;-77
2021/04/04 01:24:04;;;;;;;26.13;11.77;;;;;;;17.49;60.94;100147.06;5061329;28;20048;-77
2021/04/04 01:26:44;;;;;;;37.60;14.30;;;;;;;17.41;61.11;100151.56;5054317;28;20553;-80
2021/04/04 01:29:11;;;;;;;27.25;11.50;;;;;;;17.28;61.19;100135.66;5054363;28;20413;-78
2021/04/04 01:31:39;;;;;;;27.33;12.03;;;;;;;17.37;61.32;100149.78;5055408;28;20045;-70
2021/04/04 01:34:06;;;;;;;30.57;11.97;;;;;;;17.34;61.53;100144.81;5063380;28;20550;-73
2021/04/04 01:36:37;;;;;;;37.03;15.03;;;;;;;17.30;61.51;100150.28;5062354;28;20048;-68
2021/04/04 01:39:08;;;;;;;26.47;12.73;;;;;;;17.27;61.65;100150.97;5059163;28;20044;-72
2021/04/04 01:41:40;;;;;;;32.93;13.40;;;;;;;17.18;61.53;100142.50;5065780;28;20398;-79
2021/04/04 01:44:16;;;;;;;25.67;12.30;;;;;;;17.12;61.52;100121.25;5065559;28;20048;-74
2021/04/04 01:46:46;;;;;;;31.23;12.23;;;;;;;17.17;61.64;100138.03;5062871;28;20053;-69
2021/04/04 01:49:14;;;;;;;37.03;12.43;;;;;;;17.17;61.59;100145.66;5065677;28;20417;-70
2021/04/04 01:51:45;;;;;;;29.33;13.20;;;;;;;17.02;61.72;100128.06;5061545;28;20041;-69
2021/04/04 01:54:13;;;;;;;32.07;14.43;;;;;;;17.13;61.89;100151.16;5062548;28;20049;-73
2021/04/04 01:56:40;;;;;;;33.27;14.30;;;;;;;17.12;61.64;100148.66;5065308;28;20056;-75
2021/04/04 01:59:08;;;;;;;30.93;12.20;;;;;;;17.08;61.63;100156.94;5059358;28;20049;-79
2021/04/04 02:01:35;;;;;;;27.90;13.43;;;;;;;17.01;61.84;100148.16;5063157;28;20045;-76
2021/04/04 02:04:07;;;;;;;30.27;13.50;;;;;;;16.98;61.98;100143.19;5066870;28;20052;-77
2021/04/04 02:06:38;;;;;;;31.93;13.10;;;;;;;16.93;62.01;100137.72;5062608;28;20048;-67
2021/04/04 02:09:08;;;;;;;32.57;14.13;;;;;;;16.95;61.87;100149.50;5057725;28;20554;-68
2021/04/04 02:11:35;;;;;;;24.52;13.68;;;;;;;16.95;61.66;100150.31;5060191;28;20079;-69
2021/04/04 02:14:11;;;;;;;36.40;11.97;;;;;;;16.87;62.08;100150.34;5059615;28;20405;-68
2021/04/04 02:16:43;;;;;;;31.27;12.70;;;;;;;16.75;61.94;100143.38;5046653;28;20122;-68
2021/04/04 02:19:14;;;;;;;31.57;12.33;;;;;;;16.81;62.10;100164.59;5057685;28;20052;-69
2021/04/04 02:21:42;;;;;;;35.10;13.30;;;;;;;16.75;62.20;100142.53;5063498;28;20044;-68
2021/04/04 02:24:10;;;;;;;31.13;12.87;;;;;;;16.70;62.15;100142.69;5057322;28;20451;-65
2021/04/04 02:26:36;;;;;;;27.47;12.77;;;;;;;16.74;62.21;100153.00;5059618;28;20405;-68
2021/04/04 02:29:05;;;;;;;33.93;12.50;;;;;;;16.32;62.18;100076.53;5062569;28;20041;-69
2021/04/04 02:31:41;;;;;;;29.87;11.90;;;;;;;16.54;62.25;100123.44;5065549;28;20127;-69
2021/04/04 02:34:14;;;;;;;28.30;12.10;;;;;;;16.63;62.05;100151.63;5056372;28;20082;-70
2021/04/04 02:36:42;;;;;;;35.37;13.90;;;;;;;16.67;62.28;100160.25;5058221;28;20040;-69
2021/04/04 02:39:24;;;;;;;29.30;13.13;;;;;;;16.53;62.12;100149.16;5061792;28;20137;-69
2021/04/04 02:41:51;;;;;;;32.20;12.83;;;;;;;16.64;62.27;100161.75;5059554;28;20045;-71
2021/04/04 02:44:18;;;;;;;29.00;12.83;;;;;;;16.58;62.66;100148.97;5062205;28;20048;-70
2021/04/04 02:46:50;;;;;;;68.17;15.53;;;;;;;16.55;62.87;100136.38;5058961;28;20048;-70
2021/04/04 02:49:20;;;;;;;59.47;16.10;;;;;;;16.52;62.93;100133.41;5061361;28;20478;-71
2021/04/04 02:51:51;;;;;;;87.35;17.05;;;;;;;16.65;63.12;100152.16;5061633;28;20051;-68
2021/04/04 02:54:23;;;;;;;68.80;16.40;;;;;;;16.71;63.64;100144.34;5066380;28;20493;-69
2021/04/04 02:56:50;;;;;;;84.80;17.03;;;;;;;16.73;63.51;100154.13;5066250;28;20041;-71
2021/04/04 02:59:24;;;;;;;58.60;13.67;;;;;;;16.67;63.27;100146.16;5056437;28;20056;-68
2021/04/04 03:01:52;;;;;;;62.60;16.73;;;;;;;16.84;63.61;100153.81;5061718;28;20049;-70
2021/04/04 03:04:21;;;;;;;111.27;21.57;;;;;;;16.87;63.69;100158.81;5060685;28;20409;-70
2021/04/04 03:06:49;;;;;;;70.10;16.80;;;;;;;16.81;63.59;100152.50;5068227;28;20044;-67
2021/04/04 03:09:18;;;;;;;139.07;18.27;;;;;;;16.88;63.63;100155.63;5058065;28;20048;-69
2021/04/04 03:11:47;;;;;;;134.63;18.53;;;;;;;16.84;63.36;100153.81;5058297;28;20552;-68
2021/04/04 03:14:15;;;;;;;112.47;18.92;;;;;;;16.83;63.54;100155.81;5058480;28;20290;-71
2021/04/04 03:16:43;;;;;;;85.77;16.07;;;;;;;16.76;63.96;100153.50;5064956;28;20041;-72
2021/04/04 03:19:12;;;;;;;150.53;20.70;;;;;;;16.96;64.13;100171.75;5060946;28;20060;-76
2021/04/04 03:21:40;;;;;;;173.20;20.90;;;;;;;17.08;64.08;100158.94;5061876;28;20493;-73
2021/04/04 03:24:09;;;;;;;161.17;21.00;;;;;;;17.12;63.74;100171.22;5063007;28;20499;-77
2021/04/04 03:26:38;;;;;;;213.00;22.13;;;;;;;17.15;63.73;100177.03;5062482;28;20485;-76
2021/04/04 03:29:07;;;;;;;164.73;19.33;;;;;;;17.22;63.19;100171.69;5057192;28;20079;-77
2021/04/04 03:31:34;;;;;;;245.87;22.90;;;;;;;17.15;63.32;100165.72;5064502;28;20040;-81
2021/04/04 03:34:01;;;;;;;125.60;18.77;;;;;;;17.22;63.26;100171.69;5060628;28;20052;-79
2021/04/04 03:36:28;;;;;;;160.03;19.50;;;;;;;17.27;63.53;100173.53;5068282;28;20052;-72
2021/04/04 03:38:56;;;;;;;83.23;14.63;;;;;;;17.16;63.17;100155.28;5062930;28;20501;-72
2021/04/04 03:41:26;;;;;;;133.10;17.97;;;;;;;17.06;63.43;100133.91;5049526;28;20055;-78
2021/04/04 03:43:53;;;;;;;238.88;23.67;;;;;;;17.10;63.28;100151.81;5060231;28;20048;-78
2021/04/04 03:46:25;;;;;;;105.17;17.23;;;;;;;17.11;63.23;100167.56;5062064;28;20398;-76
2021/04/04 03:48:53;;;;;;;103.47;16.80;;;;;;;17.20;63.33;100161.94;5057472;28;20079;-75
2021/04/04 03:51:24;;;;;;;118.37;17.70;;;;;;;17.14;63.57;100161.25;5060646;28;20051;-77
2021/04/04 03:53:53;;;;;;;154.07;18.77;;;;;;;17.05;63.39;100161.25;5059437;28;20412;-75
2021/04/04 03:56:29;;;;;;;168.27;23.77;;;;;;;17.10;63.69;100171.56;5064174;28;20079;-75
2021/04/04 03:59:00;;;;;;;183.77;20.73;;;;;;;17.04;63.49;100161.59;5054228;28;20063;-74
2021/04/04 04:01:29;;;;;;;79.43;16.80;;;;;;;17.08;63.71;100167.41;5041262;28;20048;-73
2021/04/04 04:03:56;;;;;;;83.00;18.50;;;;;;;17.08;63.60;100165.41;5058097;28;20076;-74
2021/04/04 04:06:26;;;;;;;72.63;17.98;;;;;;;17.11;64.01;100164.75;5049542;28;22185;-77
2021/04/04 04:08:54;;;;;;;106.90;16.77;;;;;;;17.15;63.92;100179.00;5064142;28;20048;-78
2021/04/04 04:11:20;;;;;;;67.37;14.50;;;;;;;17.08;63.64;100175.88;5056050;28;20061;-73
2021/04/04 04:13:47;;;;;;;125.53;18.63;;;;;;;17.07;63.99;100177.03;5060729;28;20048;-73
2021/04/04 04:16:15;;;;;;;98.70;15.87;;;;;;;16.90;63.49;100160.97;5060100;28;20052;-76
2021/04/04 04:18:45;;;;;;;86.70;16.17;;;;;;;16.80;63.77;100168.59;5065971;28;20066;-81
2021/04/04 04:21:13;;;;;;;70.57;16.13;;;;;;;16.77;63.77;100168.41;5064416;28;20045;-73
2021/04/04 04:23:42;;;;;;;83.53;15.73;;;;;;;16.85;63.74;100166.75;5064228;28;20056;-72
2021/04/04 04:26:10;;;;;;;92.23;16.47;;;;;;;16.96;63.88;100183.03;5058489;28;20044;-72
2021/04/04 04:28:39;;;;;;;88.60;15.40;;;;;;;16.99;63.74;100184.31;5064303;28;20044;-79
2021/04/04 04:31:19;;;;;;;202.50;22.27;;;;;;;16.94;63.50;100176.88;5061645;28;20041;-77
2021/04/04 04:33:51;;;;;;;135.07;18.77;;;;;;;16.88;63.63;100164.09;5057782;28;20044;-75
2021/04/04 04:36:21;;;;;;;91.03;16.20;;;;;;;16.98;63.77;100193.97;5057882;28;20421;-72
2021/04/04 04:38:50;;;;;;;135.25;18.60;;;;;;;16.95;63.50;100194.63;5061097;28;20047;-77
2021/04/04 04:41:16;;;;;;;118.60;19.83;;;;;;;16.94;63.74;100195.78;5057336;28;20059;-78
2021/04/04 04:43:48;;;;;;;129.43;17.97;;;;;;;16.89;63.70;100202.44;5063462;28;20059;-77
2021/04/04 04:46:16;;;;;;;137.17;18.83;;;;;;;16.93;63.99;100199.78;5055558;28;20501;-78
2021/04/04 04:48:42;;;;;;;151.97;18.87;;;;;;;16.83;63.73;100183.19;5065567;28;20059;-78
2021/04/04 04:51:11;;;;;;;167.70;20.37;;;;;;;16.85;63.90;100203.41;5062690;28;20053;-71
2021/04/04 04:53:39;;;;;;;119.43;16.57;;;;;;;16.80;63.85;100191.16;5060945;28;20136;-71
2021/04/04 04:56:06;;;;;;;134.77;18.10;;;;;;;16.75;64.19;100191.31;5061431;28;20049;-73
2021/04/04 04:58:35;;;;;;;51.67;13.77;;;;;;;16.89;64.12;100205.25;5056381;28;20041;-68
2021/04/04 05:01:07;;;;;;;103.97;16.50;;;;;;;16.83;64.08;100186.00;5059957;28;20390;-68
2021/04/04 05:03:33;;;;;;;112.47;15.47;;;;;;;16.96;64.05;100207.59;5044372;28;20063;-70
2021/04/04 05:06:08;;;;;;;41.27;13.30;;;;;;;16.88;63.62;100197.94;5062070;28;20040;-70
2021/04/04 05:08:36;;;;;;;79.87;15.50;;;;;;;16.83;63.67;100203.75;5057805;28;20528;-69
2021/04/04 05:11:07;;;;;;;44.93;14.10;;;;;;;16.84;64.01;100204.59;5061482;28;20048;-68
2021/04/04 05:13:34;;;;;;;66.87;16.30;;;;;;;16.86;63.63;100202.28;5059177;28;20043;-73
2021/04/04 05:16:08;;;;;;;94.20;18.83;;;;;;;16.84;63.63;100207.41;5060664;28;20045;-74
2021/04/04 05:18:34;;;;;;;120.83;18.10;;;;;;;16.71;63.29;100190.28;5057155;28;20410;-76
2021/04/04 05:21:02;;;;;;;42.20;14.50;;;;;;;16.72;63.36;100206.03;5064319;28;20045;-74
2021/04/04 05:23:29;;;;;;;43.70;15.13;;;;;;;16.74;63.54;100208.53;5061217;28;20053;-70
2021/04/04 05:25:56;;;;;;;71.50;14.73;;;;;;;16.69;63.25;100208.69;5062577;28;20048;-73
2021/04/04 05:28:23;;;;;;;85.87;14.70;;;;;;;16.59;63.64;100205.03;5052795;28;20045;-82
2021/04/04 05:30:49;;;;;;;49.07;14.43;;;;;;;16.65;63.63;100213.31;5056567;28;20155;-73
2021/04/04 05:33:16;;;;;;;77.50;14.93;;;;;;;16.57;63.59;100210.16;5056541;28;20041;-70
2021/04/04 05:35:43;;;;;;;73.07;16.10;;;;;;;16.49;63.60;100201.69;5056074;28;20472;-82
2021/04/04 05:38:11;;;;;;;70.73;14.23;;;;;;;16.52;63.42;100209.50;5061099;28;20041;-74
2021/04/04 05:40:37;;;;;;;92.03;16.27;;;;;;;16.47;63.44;100210.47;5060350;28;20469;-66
2021/04/04 05:43:14;;;;;;;82.77;15.30;;;;;;;16.53;63.42;100217.63;5065526;28;20569;-65
2021/04/04 05:45:47;;;;;;;53.50;15.07;;;;;;;16.47;63.58;100210.47;5057963;28;20128;-66
2021/04/04 05:48:42;;;;;;;69.40;14.30;;;;;;;16.47;63.23;100216.09;5058346;28;20049;-67
2021/04/04 05:51:25;;;;;;;126.40;17.47;;;;;;;16.43;63.33;100228.38;5065759;28;20044;-68
2021/04/04 05:54:29;;;;;;;75.83;14.00;;;;;;;16.40;63.42;100226.22;5058029;28;20052;-67
2021/04/04 05:57:52;;;;;;;82.83;13.47;;;;;;;16.35;63.40;100222.38;5067032;28;20242;-67
2021/04/04 06:00:21;;;;;;;56.73;12.03;;;;;;;16.29;63.30;100223.69;4980160;28;20054;-67
2021/04/04 06:03:02;;;;;;;32.80;12.10;;;;;;;16.25;63.06;100228.34;4979165;28;20141;-66
2021/04/04 06:05:56;;;;;;;73.70;12.30;;;;;;;16.15;62.84;100231.44;5039456;28;20041;-68
2021/04/04 06:09:00;;;;;;;106.57;15.83;;;;;;;16.01;62.78;100231.56;5057941;28;20052;-65
2021/04/04 06:11:52;;;;;;;59.03;12.57;;;;;;;15.76;63.02;100227.47;5063925;28;20052;-70
2021/04/04 06:15:02;;;;;;;57.57;13.30;;;;;;;15.86;63.16;100243.22;5066753;28;20063;-67
2021/04/04 06:17:38;;;;;;;121.85;13.32;;;;;;;15.80;63.15;100234.13;5057567;28;20045;-67
2021/04/04 06:20:47;;;;;;;79.67;14.17;;;;;;;15.83;63.41;100243.91;5059302;28;20392;-67
2021/04/04 06:23:46;;;;;;;86.07;12.98;;;;;;;15.81;63.64;100251.84;5066238;28;20043;-67
2021/04/04 06:26:34;;;;;;;107.43;13.30;;;;;;;15.84;63.36;100252.00;5032154;28;20072;-68
2021/04/04 06:29:10;;;;;;;92.50;10.27;;;;;;;15.80;63.39;100248.19;5064375;28;20055;-68
2021/04/04 06:32:04;;;;;;;45.43;9.40;;;;;;;15.76;63.15;100257.59;5061927;28;20564;-68
2021/04/04 06:34:39;;;;;;;81.53;11.77;;;;;;;15.77;63.27;100262.91;5068017;28;20067;-68
2021/04/04 06:37:26;;;;;;;107.80;11.63;;;;;;;15.79;63.28;100259.75;5065915;28;20059;-67
2021/04/04 06:40:02;;;;;;;70.23;9.87;;;;;;;15.78;63.07;100264.56;5062234;28;20051;-67
2021/04/04 06:43:01;;;;;;;37.47;8.47;;;;;;;15.68;63.03;100256.38;5060935;28;20041;-66
2021/04/04 06:45:53;;;;;;;74.28;10.93;;;;;;;15.70;63.13;100262.53;5060369;28;20701;-67
2021/04/04 06:48:45;;;;;;;69.33;10.37;;;;;;;15.77;63.07;100265.72;5061962;28;20052;-70
2021/04/04 06:51:35;;;;;;;103.50;11.33;;;;;;;15.87;62.92;100273.91;5064569;28;20067;-67
2021/04/04 06:54:20;;;;;;;66.90;10.87;;;;;;;15.86;62.92;100277.88;5058614;28;20053;-67
2021/04/04 06:57:01;;;;;;;63.00;9.93;;;;;;;15.91;63.32;100284.53;5061791;28;20048;-69
2021/04/04 06:59:46;;;;;;;48.42;9.00;;;;;;;16.01;63.18;100275.78;5055762;28;20055;-69
2021/04/04 07:02:14;;;;;;;55.80;9.97;;;;;;;16.00;63.17;100279.75;5059916;28;20410;-68
2021/04/04 07:05:09;;;;;;;29.00;9.67;;;;;;;15.93;62.92;100285.00;5056995;28;20044;-68
2021/04/04 07:08:13;;;;;;;77.10;10.90;;;;;;;15.83;62.92;100286.97;5054498;28;20049;-68
2021/04/04 07:10:54;;;;;;;68.40;9.73;;;;;;;15.75;62.72;100276.47;5060307;28;20199;-72
2021/04/04 07:13:54;;;;;;;24.13;8.43;;;;;;;15.86;62.67;100294.78;5063371;28;20044;-74
2021/04/04 07:16:23;;;;;;;32.40;9.07;;;;;;;16.17;62.81;100299.56;5061062;28;20063;-75
2021/04/04 07:18:52;;;;;;;15.57;8.67;;;;;;;16.43;62.75;100291.22;5062357;28;20047;-66
2021/04/04 07:21:56;;;;;;;15.55;8.50;;;;;;;16.70;62.51;100300.56;5064314;28;20052;-67
2021/04/04 07:24:49;;;;;;;14.93;8.70;;;;;;;17.13;62.24;100299.81;5055830;28;21782;-67
2021/04/04 07:27:42;;;;;;;15.00;9.23;;;;;;;17.62;61.62;100304.16;5046333;28;20049;-69
2021/04/04 07:30:41;;;;;;;10.73;7.43;;;;;;;18.05;60.75;100302.41;5060544;28;20047;-69
2021/04/04 07:33:14;;;;;;;10.43;7.05;;;;;;;18.43;60.04;100300.47;5034534;28;20396;-67
2021/04/04 07:35:50;;;;;;;12.38;8.60;;;;;;;18.82;59.43;100314.59;5067049;28;20568;-70
2021/04/04 07:38:27;;;;;;;11.10;8.07;;;;;;;19.24;58.39;100309.78;5065002;28;20097;-69
2021/04/04 07:41:21;;;;;;;13.00;8.30;;;;;;;19.58;57.51;100311.50;5056625;28;20044;-70
2021/04/04 07:44:00;;;;;;;14.80;7.70;;;;;;;19.83;56.58;100295.47;5059417;28;20490;-70
2021/04/04 07:46:35;;;;;;;14.83;8.30;;;;;;;20.22;55.92;100315.88;5056770;28;20396;-67
2021/04/04 07:49:23;;;;;;;13.68;7.82;;;;;;;20.66;54.68;100315.38;5055062;28;20778;-68
2021/04/04 07:51:54;;;;;;;13.20;8.63;;;;;;;21.05;53.74;100320.28;5060448;28;20041;-67
2021/04/04 07:54:42;;;;;;;10.43;7.40;;;;;;;21.23;52.91;100322.88;5058852;28;20060;-68
2021/04/04 07:57:27;;;;;;;13.85;8.02;;;;;;;21.66;52.13;100318.50;5056717;28;20128;-67
2021/04/04 08:00:03;;;;;;;10.60;6.70;;;;;;;21.94;50.43;100329.88;5058606;28;23030;-67
2021/04/04 08:02:40;;;;;;;14.40;7.22;;;;;;;22.22;49.91;100330.72;5059832;28;20500;-68
2021/04/04 08:05:09;;;;;;;9.68;6.10;;;;;;;22.54;48.54;100315.69;5055863;28;20043;-69
2021/04/04 08:07:56;;;;;;;8.93;5.13;;;;;;;22.90;48.34;100312.50;5059893;28;20813;-67
2021/04/04 08:10:52;;;;;;;9.50;6.40;;;;;;;23.37;45.60;100328.69;5064470;28;20063;-68
2021/04/04 08:13:31;;;;;;;5.75;3.13;;;;;;;23.02;40.83;100325.84;5059179;28;20187;-69
2021/04/04 08:16:14;;;;;;;7.25;3.30;;;;;;;23.28;40.25;100330.94;5061763;28;20048;-70
2021/04/04 08:18:40;;;;;;;2.90;2.20;;;;;;;23.25;36.16;100337.38;5057075;28;20067;-69
2021/04/04 08:21:20;;;;;;;5.85;2.30;;;;;;;23.46;36.26;100319.09;5063321;28;20041;-67
2021/04/04 08:23:55;;;;;;;2.05;1.60;;;;;;;23.45;33.97;100326.81;5059778;28;20623;-69
2021/04/04 08:26:32;;;;;;;2.88;1.77;;;;;;;23.31;32.02;100335.03;5062784;28;20412;-67
2021/04/04 08:29:06;;;;;;;3.10;1.77;;;;;;;23.08;30.50;100326.41;5058940;28;20055;-69
2021/04/04 08:31:38;;;;;;;6.35;3.05;;;;;;;23.16;29.49;100329.03;5057331;28;20056;-69
2021/04/04 08:34:17;;;;;;;2.75;1.80;;;;;;;22.57;26.42;100320.63;5057077;28;20454;-68
2021/04/04 08:36:57;;;;;;;3.75;1.88;;;;;;;22.09;25.39;100309.19;5052774;28;20056;-69
2021/04/04 08:39:26;;;;;;;7.72;1.98;;;;;;;22.26;26.00;100336.50;5062843;28;20044;-66
2021/04/04 08:41:56;;;;;;;1.70;1.35;;;;;;;22.30;25.02;100336.59;5063630;28;20040;-71
2021/04/04 08:44:51;;;;;;;2.95;1.65;;;;;;;22.31;25.67;100321.16;5058196;28;20892;-73
2021/04/04 08:47:35;;;;;;;3.28;2.00;;;;;;;22.33;24.33;100308.22;5060147;28;20056;-71
2021/04/04 08:50:08;;;;;;;4.03;1.70;;;;;;;22.40;24.28;100319.81;5063509;28;20123;-73
2021/04/04 08:52:38;;;;;;;2.92;1.45;;;;;;;22.55;24.18;100314.47;5061638;28;20067;-72
2021/04/04 08:55:06;;;;;;;3.90;1.85;;;;;;;22.63;23.78;100310.59;5061185;28;20464;-72
2021/04/04 08:57:43;;;;;;;4.88;1.70;;;;;;;22.71;22.91;100316.13;5046369;28;20107;-74
2021/04/04 09:00:11;;;;;;;9.25;2.40;;;;;;;22.82;23.01;100307.84;5059992;28;20041;-72
2021/04/04 09:02:46;;;;;;;4.60;2.20;;;;;;;23.23;23.28;100322.66;5062382;28;20056;-75
2021/04/04 09:05:14;;;;;;;5.40;2.30;;;;;;;23.52;22.92;100311.88;5063688;28;20121;-75
2021/04/04 09:07:43;;;;;;;5.68;2.03;;;;;;;23.72;22.39;100327.81;5057780;28;20037;-75
2021/04/04 09:10:13;;;;;;;3.30;1.67;;;;;;;23.94;22.61;100328.28;5052964;28;20045;-73
2021/04/04 09:12:42;;;;;;;5.93;2.63;;;;;;;24.00;22.81;100323.91;5057123;28;20055;-74
2021/04/04 09:15:10;;;;;;;5.18;2.70;;;;;;;23.99;21.88;100327.97;5056848;28;20056;-75
2021/04/04 09:17:37;;;;;;;3.67;2.10;;;;;;;24.38;21.99;100337.28;5062697;28;20044;-76
2021/04/04 09:20:07;;;;;;;6.18;2.70;;;;;;;24.36;21.49;100328.28;5062076;28;20048;-77
2021/04/04 09:22:37;;;;;;;4.47;2.70;;;;;;;24.36;20.68;100342.53;5060617;28;20047;-76
2021/04/04 09:25:09;;;;;;;4.22;2.03;;;;;;;24.32;20.95;100344.50;5055324;28;20045;-75
2021/04/04 09:27:40;;;;;;;3.40;1.90;;;;;;;24.27;20.45;100345.66;5060678;28;20063;-77
2021/04/04 09:30:34;;;;;;;3.25;2.22;;;;;;;23.98;20.84;100352.00;5054750;28;20090;-75
2021/04/04 09:33:08;;;;;;;5.57;2.40;;;;;;;24.04;20.72;100344.78;5051692;28;20052;-74
2021/04/04 09:35:34;;;;;;;3.55;2.35;;;;;;;24.39;21.36;100361.75;5054940;28;20060;-79
2021/04/04 09:38:08;;;;;;;6.32;2.60;;;;;;;25.02;21.54;100355.53;5056251;28;20040;-77
2021/04/04 09:40:35;;;;;;;4.05;2.30;;;;;;;25.69;21.61;100369.22;5052270;28;20453;-75
2021/04/04 09:43:12;;;;;;;7.15;2.75;;;;;;;25.94;21.06;100365.88;5057208;28;20045;-75
2021/04/04 09:45:39;;;;;;;6.15;2.40;;;;;;;25.95;20.55;100362.66;5053651;28;20508;-76
2021/04/04 09:48:26;;;;;;;4.57;2.22;;;;;;;25.25;19.24;100358.38;5051308;28;20045;-75
2021/04/04 09:51:15;;;;;;;4.00;2.38;;;;;;;25.61;20.57;100353.19;5052566;28;20114;-77
2021/04/04 09:53:47;;;;;;;4.57;2.20;;;;;;;26.18;20.31;100353.91;5057496;28;20445;-77
2021/04/04 09:56:32;;;;;;;12.18;3.17;;;;;;;26.17;19.76;100357.16;5056061;28;20049;-76
2021/04/04 09:58:59;;;;;;;4.03;2.50;;;;;;;25.98;20.02;100315.25;5055590;28;20040;-76
2021/04/04 10:01:28;;;;;;;3.88;2.22;;;;;;;26.10;18.66;100368.53;5055387;28;20061;-77
2021/04/04 10:04:00;;;;;;;6.25;4.55;;;;;;;26.16;19.07;100379.25;5061443;28;20044;-75
2021/04/04 10:06:28;;;;;;;4.78;2.90;;;;;;;26.72;19.74;100360.22;5061062;28;20057;-76
2021/04/04 10:09:02;;;;;;;6.70;3.17;;;;;;;27.26;19.59;100355.75;5056506;28;20075;-75
2021/04/04 10:11:30;;;;;;;8.13;3.08;;;;;;;27.99;19.24;100357.81;5058391;28;20059;-76
2021/04/04 10:14:12;;;;;;;5.35;2.50;;;;;;;28.50;19.63;100357.56;5056094;28;20426;-76
2021/04/04 10:16:39;;;;;;;4.25;2.70;;;;;;;28.95;18.68;100358.00;5056345;28;20056;-77
2021/04/04 10:19:07;;;;;;;10.80;2.75;;;;;;;28.73;18.43;100373.59;5055902;28;20045;-76
2021/04/04 10:21:38;;;;;;;4.70;3.05;;;;;;;28.34;18.37;100368.56;5055344;28;20490;-78
2021/04/04 10:24:28;;;;;;;4.38;2.60;;;;;;;28.53;18.68;100364.53;5056478;28;20421;-77
2021/04/04 10:27:19;;;;;;;6.35;3.60;;;;;;;28.90;18.91;100363.34;5057234;28;20044;-77
2021/04/04 10:29:48;;;;;;;5.90;2.85;;;;;;;29.22;18.58;100348.97;5055766;28;20490;-76
2021/04/04 10:32:25;;;;;;;8.48;2.90;;;;;;;29.48;18.37;100354.25;5056410;28;20516;-76
2021/04/04 10:34:51;;;;;;;6.03;2.47;;;;;;;30.07;17.61;100370.13;5055845;28;20482;-76
2021/04/04 10:37:24;;;;;;;4.18;2.72;;;;;;;30.53;17.45;100361.25;5056120;28;20049;-77
2021/04/04 10:40:10;;;;;;;6.82;2.78;;;;;;;30.78;17.23;100363.16;5054979;28;20049;-76
2021/04/04 10:42:38;;;;;;;3.95;2.85;;;;;;;30.89;17.36;100353.16;5055218;28;20037;-77
2021/04/04 10:45:18;;;;;;;3.30;2.22;;;;;;;31.17;17.31;100351.25;5056930;28;20045;-77
2021/04/04 10:47:44;;;;;;;5.95;2.80;;;;;;;30.89;16.67;100355.22;5059329;28;20048;-76
2021/04/04 10:50:14;;;;;;;5.22;3.38;;;;;;;30.57;16.20;100364.09;5055209;28;20051;-76
2021/04/04 10:52:42;;;;;;;2.70;2.30;;;;;;;29.61;15.97;100342.34;5061348;28;20064;-67
2021/04/04 10:55:11;;;;;;;3.72;2.58;;;;;;;29.75;16.61;100362.44;5061792;28;20451;-72
2021/04/04 10:57:39;;;;;;;3.40;2.25;;;;;;;30.05;16.85;100356.16;5058619;28;20409;-72
2021/04/04 11:00:08;;;;;;;4.90;2.35;;;;;;;30.41;16.59;100351.03;5063372;28;20049;-74
2021/04/04 11:02:37;;;;;;;3.90;2.55;;;;;;;30.86;16.42;100354.00;5062337;28;20046;-73
2021/04/04 11:05:06;;;;;;;5.10;2.90;;;;;;;30.61;15.95;100353.38;5061492;28;20047;-73
2021/04/04 11:07:33;;;;;;;3.53;2.40;;;;;;;30.95;15.05;100359.31;5064767;28;20044;-73
2021/04/04 11:10:07;;;;;;;6.47;3.10;;;;;;;31.49;15.71;100361.69;5064271;28;20049;-72
2021/04/04 11:12:36;;;;;;;3.65;2.30;;;;;;;30.77;15.36;100345.03;5065364;28;20084;-71
2021/04/04 11:15:03;;;;;;;;;;;;;;;30.06;16.50;100352.03;5061012;28;20059;-72
2021/04/04 11:17:34;;;;;;;5.70;2.28;;;;;;;30.37;16.23;100350.22;5058157;28;19927;-73
2021/04/04 11:20:05;;;;;;;6.22;3.30;;;;;;;30.81;15.94;100351.59;5063835;28;20110;-73
2021/04/04 11:22:32;;;;;;;6.63;3.25;;;;;;;31.23;16.50;100340.91;5063006;28;20055;-71
2021/04/04 11:25:06;;;;;;;4.35;2.70;;;;;;;31.80;16.33;100330.81;5063948;28;20374;-74
2021/04/04 11:27:40;;;;;;;3.70;2.85;;;;;;;32.59;16.27;100332.66;5060510;28;20244;-73
2021/04/04 11:30:13;;;;;;;9.82;2.65;;;;;;;33.25;16.12;100335.66;5056973;28;20056;-73
2021/04/04 11:32:42;;;;;;;5.20;2.67;;;;;;;33.84;15.34;100327.47;5058344;28;20037;-72
2021/04/04 11:35:12;;;;;;;6.03;3.15;;;;;;;33.97;15.91;100337.13;5065630;28;20051;-74
2021/04/04 11:37:43;;;;;;;7.40;3.20;;;;;;;34.44;15.42;100328.25;5063310;28;20048;-72
2021/04/04 11:40:16;;;;;;;5.07;2.58;;;;;;;35.05;14.84;100342.09;5060121;28;20306;-73
2021/04/04 11:42:44;;;;;;;7.93;2.38;;;;;;;35.23;14.50;100343.72;5056419;28;20048;-72
2021/04/04 11:45:12;;;;;;;5.40;2.45;;;;;;;34.10;13.70;100334.41;5060366;28;20048;-71